Time;durP1;ratioP1;P1;durP2;ratioP2;P2;SDS_P1;SDS_P2;PMS_P1;PMS_P2;Temp;Humidity;BMP_temperature;BMP_pressure;BME280_temperature;BME280_humidity;BME280_pressure;Samples;Min_cycle;Max_cycle;Signal;HPM_P1;HPM_P2
2022/01/11 00:01:58;;;;;;;11.02;4.32;;;;;;;-1.54;73.57;99244.56;4485713;31;20589;-73
2022/01/11 00:04:29;;;;;;;10.23;4.57;;;;;;;-1.55;73.48;99250.59;4485634;31;20484;-74
2022/01/11 00:06:57;;;;;;;11.57;5.28;;;;;;;-1.56;73.27;99259.19;4485727;31;20115;-73
2022/01/11 00:11:58;;;;;;;11.60;4.87;;;;;;;-1.82;74.41;99248.00;4485727;31;20092;-73
2022/01/11 00:14:25;;;;;;;12.18;5.57;;;;;;;-1.78;74.32;99254.72;4485672;31;20118;-74
2022/01/11 00:16:52;;;;;;;15.00;5.55;;;;;;;-1.84;74.52;99260.03;4485598;31;20096;-74
2022/01/11 00:19:19;;;;;;;13.10;4.95;;;;;;;-1.83;74.63;99266.88;4485689;31;20096;-73
2022/01/11 00:21:49;;;;;;;13.57;5.28;;;;;;;-1.81;74.62;99257.38;4485433;31;20131;-74
2022/01/11 00:24:36;;;;;;;10.18;5.30;;;;;;;-1.89;74.82;99267.03;4485575;31;20503;-74
2022/01/11 00:27:09;;;;;;;13.20;4.90;;;;;;;-2.09;75.54;99255.66;4485391;31;20110;-73
2022/01/11 00:29:44;;;;;;;15.85;5.95;;;;;;;-2.13;75.70;99261.75;4485683;31;20429;-74
2022/01/11 00:32:16;;;;;;;11.52;5.22;;;;;;;-2.12;75.64;99268.56;4486014;31;20107;-74
2022/01/11 00:34:51;;;;;;;12.93;4.75;;;;;;;-2.04;75.30;99274.31;4485822;31;20084;-74
2022/01/11 00:37:20;;;;;;;11.48;4.87;;;;;;;-2.04;74.99;99279.47;4485550;31;20442;-73
2022/01/11 00:39:50;;;;;;;13.55;4.85;;;;;;;-1.92;74.37;99288.53;4485450;31;20100;-74
2022/01/11 00:42:19;;;;;;;8.85;4.87;;;;;;;-1.93;74.28;99286.84;4485552;31;20131;-73
2022/01/11 00:44:47;;;;;;;13.52;5.43;;;;;;;-1.90;73.94;99289.31;4485469;31;20101;-74
2022/01/11 00:47:15;;;;;;;11.40;4.78;;;;;;;-1.98;74.44;99289.53;4485293;31;20084;-74
2022/01/11 00:49:42;;;;;;;21.00;6.78;;;;;;;-1.94;73.99;99294.59;4483886;32;20093;-74
2022/01/11 00:52:10;;;;;;;21.05;6.90;;;;;;;-1.94;73.78;99297.97;4485486;31;20122;-74
2022/01/11 00:54:37;;;;;;;18.37;5.87;;;;;;;-1.91;73.61;99297.06;4484841;31;20093;-74
2022/01/11 00:57:04;;;;;;;11.65;5.68;;;;;;;-1.88;73.66;99305.50;4485669;31;20085;-74
2022/01/11 00:59:31;;;;;;;13.45;5.37;;;;;;;-1.97;74.01;99296.38;4485491;32;20157;-74
2022/01/11 01:01:59;;;;;;;15.13;5.12;;;;;;;-1.95;73.89;99304.03;4485415;32;20123;-74
2022/01/11 01:04:26;;;;;;;14.27;6.05;;;;;;;-1.97;73.80;99306.63;4485410;31;20158;-74
2022/01/11 01:06:53;;;;;;;12.73;5.30;;;;;;;-2.05;74.06;99307.75;4485401;31;20498;-74
2022/01/11 01:09:21;;;;;;;11.05;5.45;;;;;;;-2.19;74.71;99313.28;4485554;31;20085;-74
2022/01/11 01:11:48;;;;;;;14.80;5.35;;;;;;;-2.32;75.22;99318.75;4485288;32;20546;-74
2022/01/11 01:14:16;;;;;;;12.05;5.05;;;;;;;-2.40;75.82;99322.41;4485646;31;20154;-74
2022/01/11 01:16:44;;;;;;;17.10;5.35;;;;;;;-2.57;75.58;99325.44;4485388;31;20108;-74
2022/01/11 01:19:11;;;;;;;15.30;4.93;;;;;;;-2.60;75.77;99328.09;4485374;32;20141;-74
2022/01/11 01:21:40;;;;;;;11.10;4.45;;;;;;;-2.54;75.24;99327.91;4485134;31;20120;-74
2022/01/11 01:24:10;;;;;;;11.27;5.12;;;;;;;-2.71;75.76;99326.62;4485661;31;20123;-74
2022/01/11 01:26:38;;;;;;;12.55;5.05;;;;;;;-2.45;74.71;99329.38;4485279;31;20096;-74
2022/01/11 01:29:06;;;;;;;11.60;5.12;;;;;;;-2.42;74.37;99331.84;4485320;31;20126;-74
2022/01/11 01:31:33;;;;;;;12.23;4.78;;;;;;;-2.09;73.04;99330.09;4485234;31;20097;-74
2022/01/11 01:34:04;;;;;;;11.80;4.43;;;;;;;-1.83;71.60;99329.34;4485261;31;20114;-74
2022/01/11 01:36:31;;;;;;;9.73;4.78;;;;;;;-1.62;70.33;99329.56;4485013;31;20134;-74
2022/01/11 01:38:59;;;;;;;14.10;5.20;;;;;;;-1.61;69.93;99334.66;4485189;31;20088;-74
2022/01/11 01:41:26;;;;;;;13.55;4.43;;;;;;;-1.55;69.93;99332.81;4485055;31;20508;-74
2022/01/11 01:43:59;;;;;;;14.35;5.12;;;;;;;-1.52;69.69;99338.69;4485193;31;20118;-74
2022/01/11 01:46:27;;;;;;;13.13;5.22;;;;;;;-1.45;69.22;99336.78;4485022;31;20151;-74
2022/01/11 01:48:58;;;;;;;10.70;4.72;;;;;;;-1.46;69.54;99337.66;4484948;31;20145;-74
2022/01/11 01:51:25;;;;;;;12.13;5.50;;;;;;;-1.38;69.60;99338.25;4484648;31;20090;-74
2022/01/11 01:53:52;;;;;;;21.12;7.37;;;;;;;-1.27;71.26;99345.66;4485337;31;20097;-74
2022/01/11 01:56:22;;;;;;;18.42;7.50;;;;;;;-1.57;73.32;99338.00;4484879;31;20118;-74
2022/01/11 01:58:50;;;;;;;16.15;6.78;;;;;;;-1.58;73.45;99343.16;4484834;31;20506;-74
2022/01/11 02:01:18;;;;;;;19.73;7.25;;;;;;;-1.66;73.80;99336.53;4484888;31;20104;-74
2022/01/11 02:03:46;;;;;;;15.48;6.05;;;;;;;-1.62;73.53;99340.69;4485020;31;20096;-74
2022/01/11 02:06:16;;;;;;;14.07;6.60;;;;;;;-1.71;73.34;99338.41;4483934;31;20517;-74
2022/01/11 02:08:48;;;;;;;18.35;6.47;;;;;;;-1.68;72.91;99342.59;4484691;31;20150;-74
2022/01/11 02:11:17;;;;;;;12.20;5.05;;;;;;;-1.86;73.46;99347.41;4484768;31;20161;-74
2022/01/11 02:13:45;;;;;;;13.52;5.40;;;;;;;-1.85;72.85;99348.22;4485044;31;20123;-74
2022/01/11 02:16:13;;;;;;;15.50;6.00;;;;;;;-1.73;nan;99347.03;4484599;31;20083;-74
2022/01/11 02:18:42;;;;;;;11.63;5.93;;;;;;;-1.84;72.50;99349.94;4484885;31;20477;-74
2022/01/11 02:21:09;;;;;;;17.08;5.97;;;;;;;-1.90;72.69;99352.69;4484781;31;20818;-74
2022/01/11 02:23:37;;;;;;;17.95;6.53;;;;;;;-1.75;71.93;99348.81;4484752;31;20101;-74
2022/01/11 02:26:05;;;;;;;16.85;5.80;;;;;;;-1.83;72.28;99342.19;4484651;31;20084;-74
2022/01/11 02:28:33;;;;;;;12.73;5.95;;;;;;;-1.92;72.92;99346.72;4484753;32;20092;-74
2022/01/11 02:31:07;;;;;;;12.65;4.82;;;;;;;-1.97;72.93;99350.28;4484730;31;20096;-74
2022/01/11 02:33:38;;;;;;;17.35;5.78;;;;;;;-2.11;73.58;99349.81;4484955;31;20090;-74
2022/01/11 02:36:09;;;;;;;19.75;5.87;;;;;;;-2.07;73.34;99351.44;4484848;31;20111;-74
2022/01/11 02:38:36;;;;;;;14.40;5.35;;;;;;;-1.93;72.64;99357.91;4484465;31;20130;-74
2022/01/11 02:41:04;;;;;;;14.60;5.80;;;;;;;-1.92;72.26;99350.16;4484499;32;20155;-74
2022/01/11 02:43:31;;;;;;;16.55;5.90;;;;;;;-2.16;72.99;99351.69;4484711;31;20100;-74
2022/01/11 02:46:00;;;;;;;13.40;5.70;;;;;;;-2.27;73.78;99352.00;4484321;31;20092;-74
2022/01/11 02:48:29;;;;;;;13.43;5.70;;;;;;;-2.37;74.48;99364.22;4484539;32;20172;-74
2022/01/11 02:50:56;;;;;;;13.90;5.87;;;;;;;-2.50;75.07;99362.84;4483793;31;20156;-74
2022/01/11 02:53:24;;;;;;;13.57;6.40;;;;;;;-2.35;74.94;99365.03;4484164;31;20104;-74
2022/01/11 02:55:52;;;;;;;13.20;6.00;;;;;;;-2.40;75.38;99361.72;4484342;32;20138;-74
2022/01/11 02:58:21;;;;;;;17.73;6.28;;;;;;;-2.58;76.18;99359.66;4484213;31;20105;-74
2022/01/11 03:00:48;;;;;;;16.02;5.90;;;;;;;-2.57;76.59;99351.09;4483941;31;20112;-74
2022/01/11 03:03:22;;;;;;;12.10;4.95;;;;;;;-2.59;76.31;99355.41;4484287;31;20108;-74
2022/01/11 03:05:55;;;;;;;17.20;5.85;;;;;;;-2.60;76.31;99358.88;4484362;31;20089;-74
2022/01/11 03:08:24;;;;;;;14.55;6.15;;;;;;;-2.68;76.64;99362.47;4484307;31;20145;-74
2022/01/11 03:10:52;;;;;;;16.05;5.35;;;;;;;-2.71;77.00;99365.09;4483795;31;20096;-74
2022/01/11 03:13:20;;;;;;;15.50;6.30;;;;;;;-2.86;77.78;99368.87;4482855;32;20100;-74
2022/01/11 03:15:49;;;;;;;20.25;7.32;;;;;;;-2.97;78.78;99373.41;4483843;31;20552;-74
2022/01/11 03:18:16;;;;;;;14.30;5.37;;;;;;;-2.99;79.27;99382.06;4485277;32;20152;-74
2022/01/11 03:20:45;;;;;;;17.35;7.35;;;;;;;-3.11;80.36;99381.44;4486015;31;20103;-74
2022/01/11 03:23:20;;;;;;;18.10;6.00;;;;;;;-3.25;81.49;99375.81;4486324;31;20092;-74
2022/01/11 03:25:51;;;;;;;16.15;7.00;;;;;;;-3.30;82.15;99382.75;4486152;31;20104;-74
2022/01/11 03:28:19;;;;;;;18.83;7.35;;;;;;;-3.26;82.01;99387.75;4485887;32;20219;-74
2022/01/11 03:30:48;;;;;;;15.50;7.62;;;;;;;-3.26;82.04;99386.94;4485827;31;20688;-74
2022/01/11 03:33:15;;;;;;;21.62;7.40;;;;;;;-3.41;82.68;99394.09;4486363;31;20206;-74
2022/01/11 03:35:43;;;;;;;19.12;7.60;;;;;;;-3.45;82.86;99392.47;4486169;31;20564;-74
2022/01/11 03:38:12;;;;;;;22.08;7.15;;;;;;;-3.46;82.86;99395.91;4486202;31;20101;-74
2022/01/11 03:40:41;;;;;;;17.67;6.47;;;;;;;-3.45;83.00;99386.50;4486087;31;20096;-74
2022/01/11 03:43:10;;;;;;;15.80;6.87;;;;;;;-3.33;82.34;99391.37;4485970;31;20105;-74
2022/01/11 03:45:38;;;;;;;19.02;6.30;;;;;;;-3.27;82.09;99390.38;4485947;32;20100;-74
2022/01/11 03:48:07;;;;;;;18.45;7.50;;;;;;;-3.39;82.49;99391.50;4486149;31;20603;-74
2022/01/11 03:50:35;;;;;;;12.15;5.80;;;;;;;-3.39;82.57;99392.34;4485785;31;20176;-74
2022/01/11 03:53:10;;;;;;;17.92;6.05;;;;;;;-3.33;82.23;99396.50;4485838;31;20096;-74
2022/01/11 03:58:14;;;;;;;13.43;5.05;;;;;;;-3.42;82.09;99397.53;4486141;31;20077;-74
2022/01/11 04:00:42;;;;;;;15.10;6.25;;;;;;;-3.26;81.32;99402.31;4485867;31;20153;-74
2022/01/11 04:03:11;;;;;;;15.95;6.50;;;;;;;-3.26;80.79;99408.25;4486073;31;20157;-74
2022/01/11 04:05:41;;;;;;;12.73;5.87;;;;;;;-3.32;80.93;99413.53;4485992;31;20489;-74
2022/01/11 04:08:09;;;;;;;16.50;6.05;;;;;;;-3.43;81.19;99421.44;4485749;31;20100;-74
2022/01/11 04:10:37;;;;;;;17.23;6.85;;;;;;;-3.48;81.47;99414.75;4485961;31;20446;-74
2022/01/11 04:13:04;;;;;;;18.33;6.70;;;;;;;-3.39;80.78;99422.25;4485775;31;20454;-74
2022/01/11 04:15:31;;;;;;;15.35;5.40;;;;;;;-3.49;80.59;99416.47;4485902;31;20120;-74
2022/01/11 04:18:00;;;;;;;16.30;5.30;;;;;;;-3.51;80.69;99420.78;4485821;31;20393;-74
2022/01/11 04:20:27;;;;;;;14.05;5.25;;;;;;;-3.46;80.26;99415.56;4485722;31;20119;-74
2022/01/11 04:22:55;;;;;;;12.13;4.50;;;;;;;-3.39;78.73;99415.41;4485952;31;20123;-74
2022/01/11 04:25:23;;;;;;;12.85;4.40;;;;;;;-3.29;76.76;99422.88;4485847;31;20096;-74
2022/01/11 04:27:52;;;;;;;10.07;3.85;;;;;;;-3.24;75.48;99433.84;4485781;31;20088;-74
2022/01/11 04:30:20;;;;;;;8.70;3.75;;;;;;;-3.01;73.56;99427.38;4485055;31;20573;-74
2022/01/11 04:32:48;;;;;;;10.07;4.45;;;;;;;-2.92;72.73;99422.88;4485403;31;20092;-74
2022/01/11 04:35:16;;;;;;;9.85;4.55;;;;;;;-2.87;72.18;99423.59;4485715;32;20092;-74
2022/01/11 04:37:44;;;;;;;12.00;3.97;;;;;;;-2.78;71.84;99427.69;4485298;31;20130;-74
2022/01/11 04:40:13;;;;;;;11.40;4.00;;;;;;;-2.79;72.05;99433.66;4485691;31;20587;-74
2022/01/11 04:42:40;;;;;;;12.00;4.47;;;;;;;-2.99;73.28;99435.88;4484385;32;20116;-74
2022/01/11 04:45:11;;;;;;;10.13;3.97;;;;;;;-3.00;73.69;99440.16;4485353;31;20092;-74
2022/01/11 04:47:38;;;;;;;16.55;5.20;;;;;;;-3.09;74.25;99454.03;4485484;32;20110;-74
2022/01/11 04:50:07;;;;;;;15.32;4.57;;;;;;;-3.13;74.41;99449.84;4485454;31;20110;-74
2022/01/11 04:52:35;;;;;;;14.35;6.00;;;;;;;-3.37;75.41;99455.50;4485213;31;20108;-74
2022/01/11 04:55:04;;;;;;;13.15;4.78;;;;;;;-3.32;75.57;99459.66;4485502;32;20119;-74
2022/01/11 04:57:43;;;;;;;13.73;5.25;;;;;;;-3.31;75.41;99468.19;4485739;31;20110;-74
2022/01/11 05:00:13;;;;;;;14.57;5.25;;;;;;;-3.38;75.94;99464.91;4485236;31;20125;-74
2022/01/11 05:02:40;;;;;;;13.93;5.93;;;;;;;-3.47;76.63;99465.94;4484009;32;20126;-74
2022/01/11 05:05:09;;;;;;;12.43;4.93;;;;;;;-3.61;78.08;99473.06;4485723;31;20133;-74
2022/01/11 05:07:42;;;;;;;15.90;5.68;;;;;;;-3.69;78.78;99477.47;4485611;31;20076;-74
2022/01/11 05:10:09;;;;;;;15.25;5.03;;;;;;;-3.77;79.48;99480.19;4485341;31;20100;-74
2022/01/11 05:12:38;;;;;;;15.32;5.55;;;;;;;-3.99;79.81;99484.88;4485244;31;20168;-74
2022/01/11 05:15:12;;;;;;;14.40;5.50;;;;;;;-4.02;79.88;99488.34;4485135;31;20096;-74
2022/01/11 05:17:40;;;;;;;13.55;4.75;;;;;;;-4.05;79.80;99487.56;4485440;31;20475;-74
2022/01/11 05:20:09;;;;;;;15.13;5.87;;;;;;;-3.94;78.87;99498.44;4485268;32;20634;-74
2022/01/11 05:22:36;;;;;;;14.70;4.90;;;;;;;-3.98;78.47;99501.91;4485412;31;20114;-74
2022/01/11 05:25:04;;;;;;;18.75;5.12;;;;;;;-3.88;77.35;99503.44;4485182;31;20096;-74
2022/01/11 05:27:32;;;;;;;16.60;5.60;;;;;;;-3.87;76.72;99511.97;4485144;31;20131;-74
2022/01/11 05:30:00;;;;;;;13.88;4.18;;;;;;;-3.71;75.66;99512.53;4485290;31;20100;-74
2022/01/11 05:32:28;;;;;;;13.48;4.28;;;;;;;-3.63;74.96;99515.78;4485315;31;20186;-74
2022/01/11 05:34:55;;;;;;;13.48;4.90;;;;;;;-3.47;73.95;99509.47;4485456;31;20100;-74
2022/01/11 05:37:22;;;;;;;9.82;4.35;;;;;;;-3.30;72.92;99518.53;4485232;31;20111;-74
2022/01/11 05:39:53;;;;;;;9.50;3.58;;;;;;;-3.33;72.94;99529.72;4484972;31;20097;-74
2022/01/11 05:42:22;;;;;;;13.05;4.72;;;;;;;-3.26;72.60;99526.13;4485644;31;20434;-74
2022/01/11 05:44:49;;;;;;;10.02;4.35;;;;;;;-3.28;72.42;99532.19;4485084;31;20535;-73
2022/01/11 05:47:16;;;;;;;10.48;3.53;;;;;;;-3.37;72.67;99532.38;4485313;32;20114;-74
2022/01/11 05:49:44;;;;;;;11.30;4.05;;;;;;;-3.26;72.24;99538.09;4484837;32;20123;-74
2022/01/11 05:52:13;;;;;;;12.57;4.90;;;;;;;-3.24;72.19;99544.91;4483662;31;20986;-73
2022/01/11 05:54:41;;;;;;;11.05;4.20;;;;;;;-3.31;72.15;99537.38;4484972;31;20092;-74
2022/01/11 05:57:09;;;;;;;11.73;4.20;;;;;;;-3.39;72.40;99543.47;4484638;32;20097;-74
2022/01/11 05:59:36;;;;;;;10.13;4.65;;;;;;;-3.35;71.92;99545.97;4485174;31;20145;-74
2022/01/11 06:02:03;;;;;;;10.93;3.28;;;;;;;-3.32;71.70;99562.12;4482360;31;20096;-74
2022/01/11 06:04:31;;;;;;;11.48;3.60;;;;;;;-3.27;71.13;99564.59;4478575;32;20096;-74
2022/01/11 06:06:59;;;;;;;11.25;4.53;;;;;;;-3.35;71.28;99553.66;4468630;32;20092;-74
2022/01/11 06:09:28;;;;;;;11.15;4.20;;;;;;;-3.36;71.32;99555.41;4472930;32;20101;-74
2022/01/11 06:11:56;;;;;;;14.77;4.45;;;;;;;-3.31;71.21;99566.37;4477528;32;20126;-74
2022/01/11 06:14:23;;;;;;;13.50;5.03;;;;;;;-3.33;71.05;99562.16;4469769;32;20096;-74
2022/01/11 06:16:50;;;;;;;13.20;4.68;;;;;;;-3.34;70.97;99571.56;4478868;32;20118;-74
2022/01/11 06:19:18;;;;;;;12.75;3.95;;;;;;;-3.24;70.44;99575.66;4477717;32;20162;-74
2022/01/11 06:21:45;;;;;;;15.23;4.25;;;;;;;-3.07;69.98;99577.03;4470675;31;20097;-74
2022/01/11 06:24:13;;;;;;;12.07;4.72;;;;;;;-3.06;69.40;99584.69;4450795;32;20126;-74
2022/01/11 06:26:41;;;;;;;10.63;4.18;;;;;;;-3.13;69.88;99590.81;4449705;32;20104;-74
2022/01/11 06:29:09;;;;;;;12.32;4.20;;;;;;;-3.16;69.84;99590.88;4451322;32;20100;-74
2022/01/11 06:31:36;;;;;;;12.85;4.85;;;;;;;-3.14;69.75;99596.78;4457551;32;20730;-75
2022/01/11 06:34:04;;;;;;;9.82;4.07;;;;;;;-3.14;69.79;99603.66;4474196;31;20092;-75
2022/01/11 06:36:31;;;;;;;12.40;4.70;;;;;;;-3.30;70.22;99605.66;4482664;31;20093;-74
2022/01/11 06:38:58;;;;;;;12.10;4.97;;;;;;;-3.29;70.41;99617.59;4482667;31;20115;-74
2022/01/11 06:41:26;;;;;;;17.25;4.80;;;;;;;-3.13;69.31;99623.28;4478300;31;20415;-74
2022/01/11 06:43:54;;;;;;;10.77;4.18;;;;;;;-3.05;69.11;99632.50;4479933;31;20092;-75
2022/01/11 06:46:23;;;;;;;8.45;3.35;;;;;;;-3.07;69.23;99623.16;4481751;32;20105;-75
2022/01/11 06:48:51;;;;;;;9.57;4.35;;;;;;;-3.12;69.29;99633.50;4481567;32;20119;-74
2022/01/11 06:51:19;;;;;;;11.52;4.25;;;;;;;-3.13;69.48;99639.50;4483025;31;20112;-76
2022/01/11 06:53:47;;;;;;;10.93;4.35;;;;;;;-3.06;69.21;99635.94;4485312;32;20171;-76
2022/01/11 06:56:16;;;;;;;10.25;4.20;;;;;;;-3.11;69.48;99642.03;4484967;32;20100;-76
2022/01/11 06:58:45;;;;;;;12.93;4.53;;;;;;;-3.10;69.47;99649.69;4483732;31;20145;-75
2022/01/11 07:01:13;;;;;;;16.37;5.85;;;;;;;-3.18;69.87;99645.56;4483946;32;20521;-76
2022/01/11 07:03:41;;;;;;;9.60;4.37;;;;;;;-3.08;69.63;99652.22;4484716;31;20529;-76
2022/01/11 07:06:09;;;;;;;13.05;5.45;;;;;;;-2.98;69.04;99658.00;4485072;31;20096;-76
2022/01/11 07:08:36;;;;;;;18.27;4.75;;;;;;;-2.96;69.28;99659.66;4481455;32;20253;-76
2022/01/11 07:11:04;;;;;;;11.93;4.20;;;;;;;-2.96;69.23;99662.22;4472752;31;20095;-76
2022/01/11 07:13:32;;;;;;;13.13;4.53;;;;;;;-2.87;68.88;99659.47;4473496;32;20494;-74
2022/01/11 07:15:59;;;;;;;10.65;3.40;;;;;;;-2.74;68.51;99662.66;4474400;32;20165;-76
2022/01/11 07:18:27;;;;;;;11.40;4.03;;;;;;;-2.75;68.02;99668.66;4477404;31;20092;-74
2022/01/11 07:20:55;;;;;;;12.23;4.47;;;;;;;-2.59;67.79;99666.63;4475942;32;20112;-74
2022/01/11 07:23:22;;;;;;;10.75;4.15;;;;;;;-2.56;67.61;99666.56;4481152;31;20185;-74
2022/01/11 07:25:52;;;;;;;12.77;4.70;;;;;;;-2.50;67.18;99665.56;4484003;32;20598;-73
2022/01/11 07:28:19;;;;;;;10.55;4.25;;;;;;;-2.53;67.23;99665.63;4476411;31;20126;-74
2022/01/11 07:30:47;;;;;;;8.90;4.32;;;;;;;-2.46;66.95;99674.91;4472985;32;20104;-72
2022/01/11 07:33:15;;;;;;;10.80;4.62;;;;;;;-2.51;66.98;99669.88;4479139;32;20163;-72
2022/01/11 07:35:42;;;;;;;8.50;3.40;;;;;;;-2.38;66.63;99673.00;4470826;31;20109;-74
2022/01/11 07:38:09;;;;;;;8.27;3.87;;;;;;;-2.34;66.36;99676.34;4477930;32;20143;-73
2022/01/11 07:40:37;;;;;;;10.18;3.80;;;;;;;-2.33;66.26;99672.91;4486117;31;20137;-73
2022/01/11 07:43:04;;;;;;;11.68;4.18;;;;;;;-2.28;65.87;99675.38;4474158;31;20118;-73
2022/01/11 07:45:32;;;;;;;11.02;4.45;;;;;;;-2.18;65.41;99681.97;4479488;32;20148;-74
2022/01/11 07:48:01;;;;;;;8.55;4.12;;;;;;;-2.09;64.74;99681.78;4485308;31;20112;-74
2022/01/11 07:50:31;;;;;;;12.50;4.57;;;;;;;-1.94;63.40;99690.00;4484984;31;20096;-74
2022/01/11 07:53:00;;;;;;;11.23;4.47;;;;;;;-1.98;63.75;99684.94;4483058;31;20109;-74
2022/01/11 07:55:27;;;;;;;17.45;5.78;;;;;;;-1.87;63.13;99687.25;4483351;31;20537;-73
2022/01/11 07:57:55;;;;;;;8.38;3.92;;;;;;;-1.83;63.23;99688.06;4481053;31;20099;-73
2022/01/11 08:00:22;;;;;;;12.70;4.30;;;;;;;-1.76;62.90;99694.72;4474712;31;20096;-73
2022/01/11 08:02:50;;;;;;;8.88;4.43;;;;;;;-1.73;62.68;99699.78;4472057;31;20135;-73
2022/01/11 08:05:21;;;;;;;11.20;4.90;;;;;;;-1.65;62.56;99695.31;4478987;31;20088;-73
2022/01/11 08:07:49;;;;;;;13.95;5.00;;;;;;;-1.47;61.69;99695.72;4484497;31;20133;-73
2022/01/11 08:10:18;;;;;;;9.50;4.35;;;;;;;-1.34;62.17;99694.53;4479471;31;20118;-73
2022/01/11 08:12:51;;;;;;;12.25;5.30;;;;;;;-1.38;62.69;99703.19;4482714;31;20092;-74
2022/01/11 08:15:19;;;;;;;13.02;4.87;;;;;;;-1.39;62.86;99700.66;4485346;31;20111;-74
2022/01/11 08:17:47;;;;;;;23.05;5.57;;;;;;;-1.26;62.84;99705.47;4482248;31;20161;-75
2022/01/11 08:20:15;;;;;;;18.45;6.53;;;;;;;-1.26;62.63;99715.75;4484682;31;20096;-74
2022/01/11 08:22:48;;;;;;;14.55;4.93;;;;;;;-1.27;62.68;99708.91;4481727;32;20509;-75
2022/01/11 08:25:15;;;;;;;13.52;5.28;;;;;;;-1.18;62.27;99707.84;4478790;32;20119;-73
2022/01/11 08:27:43;;;;;;;14.13;5.50;;;;;;;-1.22;62.61;99719.09;4481253;32;20088;-74
2022/01/11 08:30:11;;;;;;;15.05;4.53;;;;;;;-1.11;61.57;99708.53;4475383;31;20389;-73
2022/01/11 08:32:39;;;;;;;16.33;5.30;;;;;;;-1.08;61.41;99713.56;4449531;31;20208;-74
2022/01/11 08:35:10;;;;;;;14.00;4.68;;;;;;;-0.96;61.04;99712.41;4464512;32;20133;-74
2022/01/11 08:37:42;;;;;;;12.07;4.65;;;;;;;-0.91;60.43;99724.28;4462668;32;20104;-73
2022/01/11 08:40:11;;;;;;;13.00;4.80;;;;;;;-0.83;60.07;99718.06;4478469;31;20163;-74
2022/01/11 08:42:39;;;;;;;11.75;4.72;;;;;;;-0.82;59.77;99722.31;4476699;32;20093;-73
2022/01/11 08:45:07;;;;;;;11.27;4.57;;;;;;;-0.70;59.35;99728.88;4483024;31;20104;-73
2022/01/11 08:47:35;;;;;;;12.65;3.92;;;;;;;-0.59;59.08;99724.25;4476811;31;20153;-74
2022/01/11 08:50:05;;;;;;;11.02;4.20;;;;;;;-0.63;59.17;99726.09;4484040;31;20445;-74
2022/01/11 08:52:32;;;;;;;12.37;6.37;;;;;;;-0.63;58.67;99731.22;4473157;32;20161;-75
2022/01/11 08:55:00;;;;;;;11.55;4.85;;;;;;;-0.57;59.02;99731.06;4480863;31;20097;-73
2022/01/11 08:57:27;;;;;;;9.93;4.85;;;;;;;-0.61;58.16;99734.59;4477941;31;20127;-75
2022/01/11 08:59:55;;;;;;;8.70;4.10;;;;;;;-0.48;58.18;99735.09;4473961;31;20153;-75
2022/01/11 09:02:23;;;;;;;11.82;4.30;;;;;;;-0.52;57.30;99728.34;4482525;31;20438;-74
2022/01/11 09:04:52;;;;;;;11.32;5.05;;;;;;;-0.36;57.57;99733.91;4474292;32;20462;-74
2022/01/11 09:07:20;;;;;;;11.05;4.32;;;;;;;-0.21;57.43;99727.47;4483941;31;20088;-74
2022/01/11 09:09:48;;;;;;;11.40;5.03;;;;;;;-0.23;56.48;99742.97;4485960;31;20118;-74
2022/01/11 09:12:18;;;;;;;12.95;4.90;;;;;;;-0.07;56.57;99737.38;4470514;32;20118;-74
2022/01/11 09:14:46;;;;;;;9.10;4.40;;;;;;;-0.04;55.79;99739.84;4491796;31;20441;-74
2022/01/11 09:17:14;;;;;;;12.60;4.30;;;;;;;0.02;55.04;99733.69;4501028;31;20159;-73
2022/01/11 09:19:42;;;;;;;15.43;5.72;;;;;;;-0.10;55.83;99734.87;4487176;31;20505;-74
2022/01/11 09:22:09;;;;;;;10.95;4.68;;;;;;;0.08;55.46;99744.63;4473024;32;20127;-74
2022/01/11 09:24:37;;;;;;;10.68;5.15;;;;;;;0.22;54.78;99730.47;4484035;31;20191;-74
2022/01/11 09:27:05;;;;;;;10.13;4.10;;;;;;;0.26;54.46;99739.78;4475911;32;20173;-75
2022/01/11 09:29:33;;;;;;;10.80;4.72;;;;;;;0.20;54.34;99737.38;4480606;31;20088;-74
2022/01/11 09:32:01;;;;;;;8.07;4.15;;;;;;;0.34;54.25;99735.25;4483762;31;20108;-74
2022/01/11 09:34:29;;;;;;;17.70;4.70;;;;;;;0.42;54.44;99733.25;4483272;31;20105;-74
2022/01/11 09:36:57;;;;;;;13.62;4.18;;;;;;;0.53;53.90;99746.66;4477576;32;20131;-75
2022/01/11 09:39:25;;;;;;;11.75;5.05;;;;;;;0.48;53.29;99743.38;4482170;31;20116;-74
2022/01/11 09:41:58;;;;;;;10.43;4.45;;;;;;;0.38;53.72;99742.00;4473501;31;20112;-74
2022/01/11 09:44:26;;;;;;;11.50;4.62;;;;;;;0.47;53.57;99736.53;4484099;31;20465;-74
2022/01/11 09:46:54;;;;;;;16.15;5.93;;;;;;;0.42;53.41;99742.72;4483062;31;20143;-74
2022/01/11 09:49:21;;;;;;;8.82;3.90;;;;;;;0.43;54.39;99736.69;4479724;31;76535;-75
2022/01/11 09:51:51;;;;;;;11.68;4.47;;;;;;;0.47;53.40;99730.53;4478940;31;20901;-75
2022/01/11 09:54:19;;;;;;;12.15;5.70;;;;;;;0.24;54.11;99739.81;4479358;32;20141;-75
2022/01/11 09:56:47;;;;;;;10.18;3.87;;;;;;;0.31;54.15;99730.19;4481278;31;20088;-75
2022/01/11 09:59:15;;;;;;;11.65;4.62;;;;;;;0.41;54.17;99736.75;4477499;31;20139;-75
2022/01/11 10:01:48;;;;;;;9.68;4.62;;;;;;;0.57;53.46;99731.09;4479079;32;20543;-75
2022/01/11 10:04:18;;;;;;;13.80;4.75;;;;;;;0.39;53.92;99732.53;4481910;31;20108;-76
2022/01/11 10:06:56;;;;;;;11.38;3.90;;;;;;;0.52;53.92;99732.06;4478763;31;20097;-74
2022/01/11 10:09:25;;;;;;;9.07;4.35;;;;;;;0.58;53.75;99732.78;4477915;31;20939;-74
2022/01/11 10:11:59;;;;;;;8.20;3.60;;;;;;;0.66;53.68;99723.03;4481358;32;20473;-74
2022/01/11 10:14:31;;;;;;;7.55;3.90;;;;;;;0.67;53.35;99722.16;4479659;31;20092;-75
2022/01/11 10:17:19;;;;;;;9.50;4.45;;;;;;;0.77;53.10;99725.25;4476384;32;20096;-75
2022/01/11 10:20:00;;;;;;;20.27;6.10;;;;;;;0.68;52.76;99729.84;4478245;31;20262;-75
2022/01/11 10:22:30;;;;;;;8.70;3.78;;;;;;;0.92;53.62;99731.63;4473089;32;20111;-75
2022/01/11 10:24:59;;;;;;;9.40;4.05;;;;;;;0.90;52.57;99731.69;4476830;32;20096;-75
2022/01/11 10:27:32;;;;;;;12.90;3.87;;;;;;;0.97;52.16;99734.87;4469337;31;20142;-75
2022/01/11 10:30:05;;;;;;;9.97;4.20;;;;;;;0.86;52.45;99735.25;4479639;31;20087;-76
2022/01/11 10:32:36;;;;;;;13.13;4.37;;;;;;;0.97;52.38;99734.87;4478576;32;20116;-75
2022/01/11 10:35:09;;;;;;;10.07;3.95;;;;;;;0.86;52.50;99727.53;4472043;32;20120;-75
2022/01/11 10:37:46;;;;;;;11.10;4.15;;;;;;;0.95;52.34;99736.69;4480840;32;20092;-75
2022/01/11 10:40:20;;;;;;;9.65;4.60;;;;;;;1.01;52.44;99728.75;4491970;31;20127;-77
2022/01/11 10:43:04;;;;;;;15.05;4.15;;;;;;;1.15;51.66;99730.84;4476189;31;20492;-75
2022/01/11 10:45:34;;;;;;;15.02;4.45;;;;;;;1.30;51.88;99727.72;4484126;31;20434;-75
2022/01/11 10:48:23;;;;;;;10.63;3.78;;;;;;;1.36;51.27;99729.22;4484030;31;20119;-74
2022/01/11 10:50:55;;;;;;;7.90;3.30;;;;;;;1.43;51.23;99735.88;4484360;31;20151;-74
2022/01/11 10:53:25;;;;;;;10.18;4.32;;;;;;;1.36;51.08;99727.50;4485917;31;20088;-76
2022/01/11 10:55:56;;;;;;;6.97;3.45;;;;;;;1.36;51.89;99736.97;4484002;31;20462;-77
2022/01/11 10:59:07;;;;;;;8.50;3.12;;;;;;;1.40;51.46;99725.66;4467708;32;20097;-78
2022/01/11 11:01:35;;;;;;;10.63;4.55;;;;;;;1.44;52.15;99729.81;4483896;31;20084;-78
2022/01/11 11:04:03;;;;;;;6.80;3.42;;;;;;;1.53;51.70;99741.53;4495770;31;20092;-74
2022/01/11 11:06:30;;;;;;;11.35;3.67;;;;;;;1.39;51.37;99732.56;4480570;32;20114;-74
2022/01/11 11:08:58;;;;;;;7.00;3.35;;;;;;;1.41;51.42;99735.09;4482358;32;20160;-75
2022/01/11 11:11:25;;;;;;;8.07;3.72;;;;;;;1.39;51.31;99731.69;4481755;32;20134;-74
2022/01/11 11:13:57;;;;;;;7.62;3.15;;;;;;;1.42;51.26;99739.34;4483630;31;20092;-74
2022/01/11 11:16:28;;;;;;;9.02;4.20;;;;;;;1.26;51.55;99733.03;4482008;31;20127;-73
2022/01/11 11:18:57;;;;;;;7.15;3.15;;;;;;;1.35;51.78;99736.16;4483316;31;20080;-74
2022/01/11 11:21:32;;;;;;;11.52;4.15;;;;;;;1.48;51.21;99731.38;4481055;31;20194;-73
2022/01/11 11:24:04;;;;;;;7.83;3.37;;;;;;;1.43;52.00;99728.13;4482560;31;20118;-74
2022/01/11 11:26:37;;;;;;;9.40;3.78;;;;;;;1.53;51.20;99732.06;4480246;32;20122;-74
2022/01/11 11:29:06;;;;;;;5.85;2.95;;;;;;;1.55;51.60;99735.41;4481692;31;20124;-73
2022/01/11 11:31:54;;;;;;;8.63;3.95;;;;;;;1.45;51.54;99730.66;4481713;31;20108;-73
2022/01/11 11:34:28;;;;;;;13.40;4.07;;;;;;;1.42;51.20;99731.59;4481584;32;20107;-73
2022/01/11 11:36:56;;;;;;;9.52;4.10;;;;;;;1.44;51.61;99732.41;4481975;32;20151;-75
2022/01/11 11:39:24;;;;;;;10.50;4.07;;;;;;;1.47;51.73;99727.13;4484365;31;20135;-77
2022/01/11 11:41:53;;;;;;;9.45;4.20;;;;;;;1.62;52.14;99730.03;4485952;31;20105;-74
2022/01/11 11:44:26;;;;;;;10.98;3.95;;;;;;;1.64;51.61;99736.81;4478728;31;20089;-75